sensor_id;sensor_type;location;lat;lon;timestamp;P1;durP1;ratioP1;P2;durP2;ratioP2
27303;SDS011;14791;52.392;13.092;2023-04-15T00:01:09;5.67;;;5.50;;
27303;SDS011;14791;52.392;13.092;2023-04-15T00:03:40;5.53;;;5.23;;
27303;SDS011;14791;52.392;13.092;2023-04-15T00:06:09;4.87;;;4.77;;
27303;SDS011;14791;52.392;13.092;2023-04-15T00:08:38;5.17;;;5.07;;
27303;SDS011;14791;52.392;13.092;2023-04-15T00:11:09;5.77;;;5.57;;
27303;SDS011;14791;52.392;13.092;2023-04-15T00:13:38;5.10;;;4.90;;
27303;SDS011;14791;52.392;13.092;2023-04-15T00:16:08;5.40;;;5.20;;
27303;SDS011;14791;52.392;13.092;2023-04-15T00:18:38;6.53;;;6.23;;
27303;SDS011;14791;52.392;13.092;2023-04-15T00:21:07;5.87;;;5.63;;
27303;SDS011;14791;52.392;13.092;2023-04-15T00:23:36;6.00;;;5.80;;
27303;SDS011;14791;52.392;13.092;2023-04-15T00:26:04;6.07;;;5.83;;
27303;SDS011;14791;52.392;13.092;2023-04-15T00:28:34;6.57;;;6.27;;
27303;SDS011;14791;52.392;13.092;2023-04-15T00:31:03;7.10;;;6.80;;
27303;SDS011;14791;52.392;13.092;2023-04-15T00:33:32;6.53;;;6.23;;
27303;SDS011;14791;52.392;13.092;2023-04-15T00:36:03;6.50;;;6.30;;
27303;SDS011;14791;52.392;13.092;2023-04-15T00:38:35;6.57;;;6.33;;
27303;SDS011;14791;52.392;13.092;2023-04-15T00:41:05;6.97;;;6.67;;
27303;SDS011;14791;52.392;13.092;2023-04-15T00:43:35;7.70;;;7.40;;
27303;SDS011;14791;52.392;13.092;2023-04-15T00:46:04;7.43;;;7.10;;
27303;SDS011;14791;52.392;13.092;2023-04-15T00:48:34;7.17;;;6.87;;
27303;SDS011;14791;52.392;13.092;2023-04-15T00:51:05;7.77;;;7.47;;
27303;SDS011;14791;52.392;13.092;2023-04-15T00:53:36;7.60;;;7.20;;
27303;SDS011;14791;52.392;13.092;2023-04-15T00:56:05;8.13;;;7.73;;
27303;SDS011;14791;52.392;13.092;2023-04-15T00:58:34;7.83;;;7.53;;
27303;SDS011;14791;52.392;13.092;2023-04-15T01:01:03;7.47;;;7.17;;
27303;SDS011;14791;52.392;13.092;2023-04-15T01:03:32;8.57;;;8.07;;
27303;SDS011;14791;52.392;13.092;2023-04-15T01:06:02;8.77;;;8.37;;
27303;SDS011;14791;52.392;13.092;2023-04-15T01:08:31;9.50;;;9.00;;
27303;SDS011;14791;52.392;13.092;2023-04-15T01:11:01;9.67;;;9.17;;
27303;SDS011;14791;52.392;13.092;2023-04-15T01:13:31;9.20;;;8.73;;
27303;SDS011;14791;52.392;13.092;2023-04-15T01:16:01;9.97;;;9.37;;
27303;SDS011;14791;52.392;13.092;2023-04-15T01:18:30;9.67;;;9.13;;
27303;SDS011;14791;52.392;13.092;2023-04-15T01:21:00;9.93;;;9.33;;
27303;SDS011;14791;52.392;13.092;2023-04-15T01:23:30;9.93;;;9.43;;
27303;SDS011;14791;52.392;13.092;2023-04-15T01:26:00;10.10;;;9.60;;
27303;SDS011;14791;52.392;13.092;2023-04-15T01:28:32;10.50;;;9.90;;
27303;SDS011;14791;52.392;13.092;2023-04-15T01:31:04;10.20;;;9.63;;
27303;SDS011;14791;52.392;13.092;2023-04-15T01:33:37;11.17;;;10.47;;
27303;SDS011;14791;52.392;13.092;2023-04-15T01:36:07;10.93;;;10.30;;
27303;SDS011;14791;52.392;13.092;2023-04-15T01:38:37;10.90;;;10.20;;
27303;SDS011;14791;52.392;13.092;2023-04-15T01:41:06;10.77;;;10.17;;
27303;SDS011;14791;52.392;13.092;2023-04-15T01:43:35;11.77;;;10.83;;
27303;SDS011;14791;52.392;13.092;2023-04-15T01:46:04;11.43;;;10.70;;
27303;SDS011;14791;52.392;13.092;2023-04-15T01:48:34;11.57;;;10.87;;
27303;SDS011;14791;52.392;13.092;2023-04-15T01:51:03;10.63;;;9.97;;
27303;SDS011;14791;52.392;13.092;2023-04-15T01:53:32;12.33;;;11.53;;
27303;SDS011;14791;52.392;13.092;2023-04-15T01:56:02;11.77;;;10.97;;
27303;SDS011;14791;52.392;13.092;2023-04-15T01:58:31;13.07;;;12.07;;
27303;SDS011;14791;52.392;13.092;2023-04-15T02:01:00;12.53;;;11.73;;
27303;SDS011;14791;52.392;13.092;2023-04-15T02:03:31;11.93;;;11.13;;
27303;SDS011;14791;52.392;13.092;2023-04-15T02:06:00;12.37;;;11.57;;
27303;SDS011;14791;52.392;13.092;2023-04-15T02:08:30;13.03;;;12.03;;
27303;SDS011;14791;52.392;13.092;2023-04-15T02:10:59;13.20;;;12.30;;
27303;SDS011;14791;52.392;13.092;2023-04-15T02:13:28;13.60;;;12.67;;
27303;SDS011;14791;52.392;13.092;2023-04-15T02:15:57;13.80;;;12.87;;
27303;SDS011;14791;52.392;13.092;2023-04-15T02:18:26;13.23;;;12.30;;
27303;SDS011;14791;52.392;13.092;2023-04-15T02:20:55;13.33;;;12.33;;
27303;SDS011;14791;52.392;13.092;2023-04-15T02:23:24;13.33;;;12.43;;
27303;SDS011;14791;52.392;13.092;2023-04-15T02:25:53;13.20;;;12.20;;
27303;SDS011;14791;52.392;13.092;2023-04-15T02:28:22;13.97;;;12.97;;
27303;SDS011;14791;52.392;13.092;2023-04-15T02:30:51;14.17;;;13.07;;
27303;SDS011;14791;52.392;13.092;2023-04-15T02:33:22;14.37;;;13.30;;
27303;SDS011;14791;52.392;13.092;2023-04-15T02:35:52;14.10;;;13.17;;
27303;SDS011;14791;52.392;13.092;2023-04-15T02:38:21;15.23;;;14.03;;
27303;SDS011;14791;52.392;13.092;2023-04-15T02:40:49;13.93;;;12.90;;
27303;SDS011;14791;52.392;13.092;2023-04-15T02:43:18;13.87;;;12.87;;
27303;SDS011;14791;52.392;13.092;2023-04-15T02:45:47;14.70;;;13.60;;
27303;SDS011;14791;52.392;13.092;2023-04-15T02:48:17;14.77;;;13.57;;
27303;SDS011;14791;52.392;13.092;2023-04-15T02:50:46;14.63;;;13.63;;
27303;SDS011;14791;52.392;13.092;2023-04-15T02:53:15;14.43;;;13.33;;
27303;SDS011;14791;52.392;13.092;2023-04-15T02:55:45;14.87;;;13.67;;
27303;SDS011;14791;52.392;13.092;2023-04-15T02:58:14;14.43;;;13.33;;
27303;SDS011;14791;52.392;13.092;2023-04-15T03:00:43;15.10;;;13.93;;
27303;SDS011;14791;52.392;13.092;2023-04-15T03:03:12;15.10;;;13.90;;
27303;SDS011;14791;52.392;13.092;2023-04-15T03:05:41;15.73;;;14.47;;
27303;SDS011;14791;52.392;13.092;2023-04-15T03:08:11;14.90;;;13.80;;
27303;SDS011;14791;52.392;13.092;2023-04-15T03:10:41;15.90;;;14.60;;
27303;SDS011;14791;52.392;13.092;2023-04-15T03:13:09;14.57;;;13.47;;
27303;SDS011;14791;52.392;13.092;2023-04-15T03:15:39;14.40;;;13.23;;
27303;SDS011;14791;52.392;13.092;2023-04-15T03:18:08;14.50;;;13.40;;
27303;SDS011;14791;52.392;13.092;2023-04-15T03:20:37;15.00;;;13.80;;
27303;SDS011;14791;52.392;13.092;2023-04-15T03:23:06;15.10;;;13.87;;
27303;SDS011;14791;52.392;13.092;2023-04-15T03:25:35;14.63;;;13.40;;
27303;SDS011;14791;52.392;13.092;2023-04-15T03:28:05;15.43;;;14.10;;
27303;SDS011;14791;52.392;13.092;2023-04-15T03:30:34;15.67;;;14.47;;
27303;SDS011;14791;52.392;13.092;2023-04-15T03:33:03;15.50;;;14.40;;
27303;SDS011;14791;52.392;13.092;2023-04-15T03:35:33;14.80;;;13.67;;
27303;SDS011;14791;52.392;13.092;2023-04-15T03:38:02;15.77;;;14.43;;
27303;SDS011;14791;52.392;13.092;2023-04-15T03:40:31;14.90;;;13.70;;
27303;SDS011;14791;52.392;13.092;2023-04-15T03:43:00;15.87;;;14.60;;
27303;SDS011;14791;52.392;13.092;2023-04-15T03:45:29;14.23;;;13.13;;
27303;SDS011;14791;52.392;13.092;2023-04-15T03:47:58;16.23;;;14.43;;
27303;SDS011;14791;52.392;13.092;2023-04-15T03:50:26;16.13;;;14.80;;
27303;SDS011;14791;52.392;13.092;2023-04-15T03:52:55;13.70;;;12.70;;
27303;SDS011;14791;52.392;13.092;2023-04-15T03:55:24;15.40;;;14.20;;
27303;SDS011;14791;52.392;13.092;2023-04-15T03:57:53;15.17;;;13.97;;
27303;SDS011;14791;52.392;13.092;2023-04-15T04:00:22;15.83;;;14.47;;
27303;SDS011;14791;52.392;13.092;2023-04-15T04:02:51;16.53;;;15.03;;
27303;SDS011;14791;52.392;13.092;2023-04-15T04:05:20;16.03;;;14.73;;
27303;SDS011;14791;52.392;13.092;2023-04-15T04:07:49;15.27;;;13.97;;
27303;SDS011;14791;52.392;13.092;2023-04-15T04:10:18;14.50;;;13.20;;
27303;SDS011;14791;52.392;13.092;2023-04-15T04:12:46;16.23;;;14.93;;
27303;SDS011;14791;52.392;13.092;2023-04-15T04:15:15;15.97;;;14.60;;
27303;SDS011;14791;52.392;13.092;2023-04-15T04:17:44;15.63;;;14.37;;
27303;SDS011;14791;52.392;13.092;2023-04-15T04:20:13;16.07;;;14.77;;
27303;SDS011;14791;52.392;13.092;2023-04-15T04:22:42;16.40;;;15.00;;
27303;SDS011;14791;52.392;13.092;2023-04-15T04:25:11;15.17;;;13.27;;
27303;SDS011;14791;52.392;13.092;2023-04-15T04:27:40;16.50;;;15.03;;
27303;SDS011;14791;52.392;13.092;2023-04-15T04:30:09;15.70;;;14.33;;
27303;SDS011;14791;52.392;13.092;2023-04-15T04:32:39;14.93;;;13.63;;
27303;SDS011;14791;52.392;13.092;2023-04-15T04:35:08;15.33;;;13.93;;
27303;SDS011;14791;52.392;13.092;2023-04-15T04:37:38;15.10;;;13.87;;
27303;SDS011;14791;52.392;13.092;2023-04-15T04:40:07;16.63;;;15.23;;
27303;SDS011;14791;52.392;13.092;2023-04-15T04:42:36;16.00;;;14.70;;
27303;SDS011;14791;52.392;13.092;2023-04-15T04:45:05;15.63;;;14.40;;
27303;SDS011;14791;52.392;13.092;2023-04-15T04:47:35;14.63;;;13.43;;
27303;SDS011;14791;52.392;13.092;2023-04-15T04:50:04;13.37;;;12.27;;
27303;SDS011;14791;52.392;13.092;2023-04-15T04:52:35;15.60;;;14.40;;
27303;SDS011;14791;52.392;13.092;2023-04-15T04:55:04;14.77;;;13.63;;
27303;SDS011;14791;52.392;13.092;2023-04-15T04:57:34;15.20;;;14.00;;
27303;SDS011;14791;52.392;13.092;2023-04-15T05:00:05;14.47;;;13.30;;
27303;SDS011;14791;52.392;13.092;2023-04-15T05:02:35;14.50;;;13.50;;
27303;SDS011;14791;52.392;13.092;2023-04-15T05:05:05;14.60;;;13.43;;
27303;SDS011;14791;52.392;13.092;2023-04-15T05:07:34;15.13;;;13.93;;
27303;SDS011;14791;52.392;13.092;2023-04-15T05:10:03;14.17;;;13.13;;
27303;SDS011;14791;52.392;13.092;2023-04-15T05:12:34;13.97;;;12.87;;
27303;SDS011;14791;52.392;13.092;2023-04-15T05:15:04;13.03;;;12.03;;
27303;SDS011;14791;52.392;13.092;2023-04-15T05:17:34;14.63;;;13.47;;
27303;SDS011;14791;52.392;13.092;2023-04-15T05:20:03;13.83;;;12.83;;
27303;SDS011;14791;52.392;13.092;2023-04-15T05:22:32;13.63;;;12.60;;
27303;SDS011;14791;52.392;13.092;2023-04-15T05:25:02;12.60;;;11.57;;
27303;SDS011;14791;52.392;13.092;2023-04-15T05:27:31;12.60;;;11.70;;
27303;SDS011;14791;52.392;13.092;2023-04-15T05:30:00;13.17;;;12.27;;
27303;SDS011;14791;52.392;13.092;2023-04-15T05:32:29;10.80;;;10.00;;
27303;SDS011;14791;52.392;13.092;2023-04-15T05:34:58;13.07;;;12.07;;
27303;SDS011;14791;52.392;13.092;2023-04-15T05:37:27;11.90;;;11.10;;
27303;SDS011;14791;52.392;13.092;2023-04-15T05:39:56;12.80;;;11.90;;
27303;SDS011;14791;52.392;13.092;2023-04-15T05:42:25;13.20;;;12.20;;
27303;SDS011;14791;52.392;13.092;2023-04-15T05:44:54;12.67;;;11.67;;
27303;SDS011;14791;52.392;13.092;2023-04-15T05:47:23;12.53;;;11.53;;
27303;SDS011;14791;52.392;13.092;2023-04-15T05:49:52;12.20;;;11.20;;
27303;SDS011;14791;52.392;13.092;2023-04-15T05:52:21;12.33;;;11.43;;
27303;SDS011;14791;52.392;13.092;2023-04-15T05:54:50;11.67;;;10.73;;
27303;SDS011;14791;52.392;13.092;2023-04-15T05:57:19;11.97;;;11.07;;
27303;SDS011;14791;52.392;13.092;2023-04-15T05:59:48;11.27;;;10.50;;
27303;SDS011;14791;52.392;13.092;2023-04-15T06:02:20;11.47;;;10.67;;
27303;SDS011;14791;52.392;13.092;2023-04-15T06:04:48;11.00;;;10.20;;
27303;SDS011;14791;52.392;13.092;2023-04-15T06:07:18;10.83;;;10.13;;
27303;SDS011;14791;52.392;13.092;2023-04-15T06:09:47;11.33;;;10.63;;
27303;SDS011;14791;52.392;13.092;2023-04-15T06:12:16;10.77;;;9.97;;
27303;SDS011;14791;52.392;13.092;2023-04-15T06:14:45;11.00;;;10.30;;
27303;SDS011;14791;52.392;13.092;2023-04-15T06:17:13;11.10;;;10.37;;
27303;SDS011;14791;52.392;13.092;2023-04-15T06:19:44;11.30;;;10.40;;
27303;SDS011;14791;52.392;13.092;2023-04-15T06:22:13;10.87;;;10.07;;
27303;SDS011;14791;52.392;13.092;2023-04-15T06:24:42;10.23;;;9.63;;
27303;SDS011;14791;52.392;13.092;2023-04-15T06:27:11;10.63;;;9.87;;
27303;SDS011;14791;52.392;13.092;2023-04-15T06:29:40;10.43;;;9.60;;
27303;SDS011;14791;52.392;13.092;2023-04-15T06:32:09;9.77;;;9.17;;
27303;SDS011;14791;52.392;13.092;2023-04-15T06:34:38;10.35;;;9.60;;
27303;SDS011;14791;52.392;13.092;2023-04-15T06:37:07;9.03;;;8.50;;
27303;SDS011;14791;52.392;13.092;2023-04-15T06:39:41;9.60;;;9.10;;
27303;SDS011;14791;52.392;13.092;2023-04-15T06:42:10;9.50;;;8.97;;
27303;SDS011;14791;52.392;13.092;2023-04-15T06:44:40;10.30;;;9.70;;
27303;SDS011;14791;52.392;13.092;2023-04-15T06:47:09;10.10;;;9.50;;
27303;SDS011;14791;52.392;13.092;2023-04-15T06:49:40;9.93;;;9.30;;
27303;SDS011;14791;52.392;13.092;2023-04-15T06:52:09;10.63;;;10.03;;
27303;SDS011;14791;52.392;13.092;2023-04-15T06:54:38;9.60;;;9.10;;
27303;SDS011;14791;52.392;13.092;2023-04-15T06:57:07;9.43;;;8.83;;
27303;SDS011;14791;52.392;13.092;2023-04-15T06:59:36;9.47;;;8.93;;
27303;SDS011;14791;52.392;13.092;2023-04-15T07:02:05;9.67;;;9.03;;
27303;SDS011;14791;52.392;13.092;2023-04-15T07:04:37;9.63;;;8.93;;
27303;SDS011;14791;52.392;13.092;2023-04-15T07:07:06;9.43;;;8.93;;
27303;SDS011;14791;52.392;13.092;2023-04-15T07:09:35;9.10;;;8.53;;
27303;SDS011;14791;52.392;13.092;2023-04-15T07:12:04;8.55;;;8.08;;
27303;SDS011;14791;52.392;13.092;2023-04-15T07:14:33;10.23;;;9.53;;
27303;SDS011;14791;52.392;13.092;2023-04-15T07:17:02;11.00;;;10.20;;
27303;SDS011;14791;52.392;13.092;2023-04-15T07:19:31;10.23;;;9.53;;
27303;SDS011;14791;52.392;13.092;2023-04-15T07:22:00;8.95;;;8.55;;
27303;SDS011;14791;52.392;13.092;2023-04-15T07:24:29;8.58;;;8.18;;
27303;SDS011;14791;52.392;13.092;2023-04-15T07:26:58;8.13;;;7.83;;
27303;SDS011;14791;52.392;13.092;2023-04-15T07:29:27;8.15;;;7.55;;
27303;SDS011;14791;52.392;13.092;2023-04-15T07:31:57;15.45;;;14.18;;
27303;SDS011;14791;52.392;13.092;2023-04-15T07:34:26;11.25;;;10.58;;
27303;SDS011;14791;52.392;13.092;2023-04-15T07:36:55;8.20;;;7.87;;
27303;SDS011;14791;52.392;13.092;2023-04-15T07:39:24;8.18;;;7.78;;
27303;SDS011;14791;52.392;13.092;2023-04-15T07:41:53;6.83;;;6.53;;
27303;SDS011;14791;52.392;13.092;2023-04-15T07:44:22;7.72;;;7.22;;
27303;SDS011;14791;52.392;13.092;2023-04-15T07:46:51;6.95;;;6.65;;
27303;SDS011;14791;52.392;13.092;2023-04-15T07:49:20;6.40;;;6.20;;
27303;SDS011;14791;52.392;13.092;2023-04-15T07:51:49;6.35;;;6.05;;
27303;SDS011;14791;52.392;13.092;2023-04-15T07:54:18;6.42;;;6.12;;
27303;SDS011;14791;52.392;13.092;2023-04-15T07:56:47;6.70;;;6.50;;
27303;SDS011;14791;52.392;13.092;2023-04-15T07:59:16;6.50;;;6.12;;
27303;SDS011;14791;52.392;13.092;2023-04-15T08:01:45;6.85;;;6.55;;
27303;SDS011;14791;52.392;13.092;2023-04-15T08:04:15;7.03;;;6.72;;
27303;SDS011;14791;52.392;13.092;2023-04-15T08:06:44;7.22;;;6.85;;
27303;SDS011;14791;52.392;13.092;2023-04-15T08:09:14;6.62;;;6.33;;
27303;SDS011;14791;52.392;13.092;2023-04-15T08:11:43;6.55;;;6.30;;
27303;SDS011;14791;52.392;13.092;2023-04-15T08:14:12;7.08;;;6.78;;
27303;SDS011;14791;52.392;13.092;2023-04-15T08:16:41;6.45;;;6.25;;
27303;SDS011;14791;52.392;13.092;2023-04-15T08:19:10;6.20;;;5.90;;
27303;SDS011;14791;52.392;13.092;2023-04-15T08:21:39;6.60;;;6.20;;
27303;SDS011;14791;52.392;13.092;2023-04-15T08:24:08;7.78;;;7.37;;
27303;SDS011;14791;52.392;13.092;2023-04-15T08:26:37;7.35;;;7.05;;
27303;SDS011;14791;52.392;13.092;2023-04-15T08:29:06;6.97;;;6.67;;
27303;SDS011;14791;52.392;13.092;2023-04-15T08:31:35;6.87;;;6.58;;
27303;SDS011;14791;52.392;13.092;2023-04-15T08:34:04;6.72;;;6.42;;
27303;SDS011;14791;52.392;13.092;2023-04-15T08:36:33;5.67;;;5.37;;
27303;SDS011;14791;52.392;13.092;2023-04-15T08:39:02;6.80;;;6.40;;
27303;SDS011;14791;52.392;13.092;2023-04-15T08:41:33;6.87;;;6.58;;
27303;SDS011;14791;52.392;13.092;2023-04-15T08:44:03;6.70;;;6.47;;
27303;SDS011;14791;52.392;13.092;2023-04-15T08:46:33;7.90;;;7.33;;
27303;SDS011;14791;52.392;13.092;2023-04-15T08:49:02;7.05;;;6.75;;
27303;SDS011;14791;52.392;13.092;2023-04-15T08:51:33;7.72;;;7.12;;
27303;SDS011;14791;52.392;13.092;2023-04-15T08:54:02;6.67;;;6.40;;
27303;SDS011;14791;52.392;13.092;2023-04-15T08:56:32;7.40;;;6.90;;
27303;SDS011;14791;52.392;13.092;2023-04-15T08:59:02;8.13;;;7.80;;
27303;SDS011;14791;52.392;13.092;2023-04-15T09:01:32;7.67;;;7.37;;
27303;SDS011;14791;52.392;13.092;2023-04-15T09:04:02;8.08;;;7.67;;
27303;SDS011;14791;52.392;13.092;2023-04-15T09:06:33;5.85;;;5.55;;
27303;SDS011;14791;52.392;13.092;2023-04-15T09:09:02;6.50;;;6.30;;
27303;SDS011;14791;52.392;13.092;2023-04-15T09:11:31;6.78;;;6.47;;
27303;SDS011;14791;52.392;13.092;2023-04-15T09:14:01;7.53;;;7.22;;
27303;SDS011;14791;52.392;13.092;2023-04-15T09:16:30;6.72;;;6.42;;
27303;SDS011;14791;52.392;13.092;2023-04-15T09:18:59;7.40;;;7.10;;
27303;SDS011;14791;52.392;13.092;2023-04-15T09:21:30;6.78;;;6.47;;
27303;SDS011;14791;52.392;13.092;2023-04-15T09:24:00;7.60;;;7.20;;
27303;SDS011;14791;52.392;13.092;2023-04-15T09:26:30;7.75;;;7.45;;
27303;SDS011;14791;52.392;13.092;2023-04-15T09:29:06;7.40;;;7.10;;
27303;SDS011;14791;52.392;13.092;2023-04-15T09:31:37;7.08;;;6.78;;
27303;SDS011;14791;52.392;13.092;2023-04-15T09:34:06;7.58;;;7.17;;
27303;SDS011;14791;52.392;13.092;2023-04-15T09:36:58;6.67;;;6.47;;
27303;SDS011;14791;52.392;13.092;2023-04-15T09:39:16;7.37;;;6.97;;
27303;SDS011;14791;52.392;13.092;2023-04-15T09:41:45;6.83;;;6.53;;
27303;SDS011;14791;52.392;13.092;2023-04-15T09:44:21;6.60;;;6.40;;
27303;SDS011;14791;52.392;13.092;2023-04-15T09:46:51;7.03;;;6.80;;
27303;SDS011;14791;52.392;13.092;2023-04-15T09:49:20;6.70;;;6.40;;
27303;SDS011;14791;52.392;13.092;2023-04-15T09:51:49;6.73;;;6.43;;
27303;SDS011;14791;52.392;13.092;2023-04-15T09:54:18;7.03;;;6.43;;
27303;SDS011;14791;52.392;13.092;2023-04-15T09:56:48;7.33;;;6.87;;
27303;SDS011;14791;52.392;13.092;2023-04-15T09:59:17;6.28;;;5.97;;
27303;SDS011;14791;52.392;13.092;2023-04-15T10:01:46;6.42;;;6.22;;
27303;SDS011;14791;52.392;13.092;2023-04-15T10:04:15;6.80;;;6.50;;
27303;SDS011;14791;52.392;13.092;2023-04-15T10:06:44;7.03;;;6.72;;
27303;SDS011;14791;52.392;13.092;2023-04-15T10:09:13;7.12;;;6.67;;
27303;SDS011;14791;52.392;13.092;2023-04-15T10:11:43;7.33;;;6.83;;
27303;SDS011;14791;52.392;13.092;2023-04-15T10:14:15;6.42;;;6.17;;
27303;SDS011;14791;52.392;13.092;2023-04-15T10:16:45;7.33;;;6.92;;
27303;SDS011;14791;52.392;13.092;2023-04-15T10:19:15;6.80;;;6.55;;
27303;SDS011;14791;52.392;13.092;2023-04-15T10:21:47;6.15;;;5.95;;
27303;SDS011;14791;52.392;13.092;2023-04-15T10:24:18;6.70;;;6.50;;
27303;SDS011;14791;52.392;13.092;2023-04-15T10:26:48;6.80;;;6.50;;
27303;SDS011;14791;52.392;13.092;2023-04-15T10:29:18;6.63;;;6.33;;
27303;SDS011;14791;52.392;13.092;2023-04-15T10:31:48;6.73;;;6.33;;
27303;SDS011;14791;52.392;13.092;2023-04-15T10:34:17;6.75;;;6.25;;
27303;SDS011;14791;52.392;13.092;2023-04-15T10:36:46;6.50;;;6.30;;
27303;SDS011;14791;52.392;13.092;2023-04-15T10:42:33;6.15;;;5.95;;
27303;SDS011;14791;52.392;13.092;2023-04-15T10:44:48;7.03;;;6.67;;
27303;SDS011;14791;52.392;13.092;2023-04-15T10:47:19;6.80;;;6.50;;
27303;SDS011;14791;52.392;13.092;2023-04-15T10:49:49;6.08;;;5.87;;
27303;SDS011;14791;52.392;13.092;2023-04-15T10:52:27;6.47;;;6.27;;
27303;SDS011;14791;52.392;13.092;2023-04-15T10:55:03;7.45;;;6.97;;
27303;SDS011;14791;52.392;13.092;2023-04-15T10:57:40;6.50;;;6.20;;
27303;SDS011;14791;52.392;13.092;2023-04-15T11:00:11;6.53;;;6.33;;
27303;SDS011;14791;52.392;13.092;2023-04-15T11:05:14;6.50;;;6.20;;
27303;SDS011;14791;52.392;13.092;2023-04-15T11:07:47;5.62;;;5.42;;
27303;SDS011;14791;52.392;13.092;2023-04-15T11:12:58;6.20;;;5.90;;
27303;SDS011;14791;52.392;13.092;2023-04-15T11:18:17;6.03;;;5.83;;
27303;SDS011;14791;52.392;13.092;2023-04-15T11:20:52;6.22;;;5.92;;
27303;SDS011;14791;52.392;13.092;2023-04-15T11:23:42;6.37;;;6.10;;
27303;SDS011;14791;52.392;13.092;2023-04-15T11:26:12;6.45;;;6.25;;
27303;SDS011;14791;52.392;13.092;2023-04-15T11:28:42;6.72;;;6.22;;
27303;SDS011;14791;52.392;13.092;2023-04-15T11:31:13;5.95;;;5.75;;
27303;SDS011;14791;52.392;13.092;2023-04-15T11:33:52;6.13;;;5.83;;
27303;SDS011;14791;52.392;13.092;2023-04-15T11:36:25;6.15;;;5.95;;
27303;SDS011;14791;52.392;13.092;2023-04-15T11:38:56;6.58;;;6.28;;
27303;SDS011;14791;52.392;13.092;2023-04-15T11:41:26;5.73;;;5.53;;
27303;SDS011;14791;52.392;13.092;2023-04-15T11:43:55;6.72;;;6.42;;
27303;SDS011;14791;52.392;13.092;2023-04-15T11:46:27;6.40;;;6.10;;
27303;SDS011;14791;52.392;13.092;2023-04-15T11:48:58;6.15;;;5.95;;
27303;SDS011;14791;52.392;13.092;2023-04-15T11:51:30;6.37;;;6.07;;
27303;SDS011;14791;52.392;13.092;2023-04-15T11:54:01;5.53;;;5.33;;
27303;SDS011;14791;52.392;13.092;2023-04-15T11:56:30;6.17;;;5.97;;
27303;SDS011;14791;52.392;13.092;2023-04-15T11:58:58;6.70;;;6.37;;
27303;SDS011;14791;52.392;13.092;2023-04-15T12:01:31;6.03;;;5.83;;
27303;SDS011;14791;52.392;13.092;2023-04-15T12:04:09;5.80;;;5.60;;
27303;SDS011;14791;52.392;13.092;2023-04-15T12:06:40;7.00;;;6.75;;
27303;SDS011;14791;52.392;13.092;2023-04-15T12:09:09;6.37;;;6.08;;
27303;SDS011;14791;52.392;13.092;2023-04-15T12:11:43;6.17;;;5.97;;
27303;SDS011;14791;52.392;13.092;2023-04-15T12:14:26;5.92;;;5.62;;
27303;SDS011;14791;52.392;13.092;2023-04-15T12:16:57;6.25;;;5.92;;
27303;SDS011;14791;52.392;13.092;2023-04-15T12:22:07;5.40;;;5.20;;
27303;SDS011;14791;52.392;13.092;2023-04-15T12:24:40;5.80;;;5.60;;
27303;SDS011;14791;52.392;13.092;2023-04-15T12:27:12;6.53;;;6.33;;
27303;SDS011;14791;52.392;13.092;2023-04-15T12:29:43;5.17;;;4.97;;
27303;SDS011;14791;52.392;13.092;2023-04-15T12:32:13;6.03;;;5.73;;
27303;SDS011;14791;52.392;13.092;2023-04-15T12:34:49;5.72;;;5.53;;
27303;SDS011;14791;52.392;13.092;2023-04-15T12:37:21;6.20;;;6.00;;
27303;SDS011;14791;52.392;13.092;2023-04-15T12:39:50;5.67;;;5.47;;
27303;SDS011;14791;52.392;13.092;2023-04-15T12:42:20;5.55;;;5.35;;
27303;SDS011;14791;52.392;13.092;2023-04-15T12:44:49;6.25;;;6.05;;
27303;SDS011;14791;52.392;13.092;2023-04-15T12:47:18;6.37;;;5.97;;
27303;SDS011;14791;52.392;13.092;2023-04-15T12:49:47;5.67;;;5.37;;
27303;SDS011;14791;52.392;13.092;2023-04-15T12:52:16;5.95;;;5.75;;
27303;SDS011;14791;52.392;13.092;2023-04-15T12:54:45;6.03;;;5.83;;
27303;SDS011;14791;52.392;13.092;2023-04-15T12:57:14;5.70;;;5.50;;
27303;SDS011;14791;52.392;13.092;2023-04-15T12:59:43;6.35;;;6.08;;
27303;SDS011;14791;52.392;13.092;2023-04-15T13:02:12;6.72;;;6.35;;
27303;SDS011;14791;52.392;13.092;2023-04-15T13:04:41;5.80;;;5.60;;
27303;SDS011;14791;52.392;13.092;2023-04-15T13:07:10;6.00;;;5.70;;
27303;SDS011;14791;52.392;13.092;2023-04-15T13:09:40;5.75;;;5.55;;
27303;SDS011;14791;52.392;13.092;2023-04-15T13:12:10;5.83;;;5.62;;
27303;SDS011;14791;52.392;13.092;2023-04-15T13:14:40;6.10;;;5.80;;
27303;SDS011;14791;52.392;13.092;2023-04-15T13:17:09;6.05;;;5.78;;
27303;SDS011;14791;52.392;13.092;2023-04-15T13:19:38;6.17;;;5.97;;
27303;SDS011;14791;52.392;13.092;2023-04-15T13:22:07;5.97;;;5.78;;
27303;SDS011;14791;52.392;13.092;2023-04-15T13:24:37;5.78;;;5.58;;
27303;SDS011;14791;52.392;13.092;2023-04-15T13:27:06;5.03;;;4.83;;
27303;SDS011;14791;52.392;13.092;2023-04-15T13:29:35;5.28;;;5.17;;
27303;SDS011;14791;52.392;13.092;2023-04-15T13:32:06;5.00;;;4.80;;
27303;SDS011;14791;52.392;13.092;2023-04-15T13:34:35;5.03;;;4.92;;
27303;SDS011;14791;52.392;13.092;2023-04-15T13:37:06;5.53;;;5.33;;
27303;SDS011;14791;52.392;13.092;2023-04-15T13:39:36;5.22;;;5.03;;
27303;SDS011;14791;52.392;13.092;2023-04-15T13:42:05;5.10;;;4.90;;
27303;SDS011;14791;52.392;13.092;2023-04-15T13:44:34;5.25;;;5.05;;
27303;SDS011;14791;52.392;13.092;2023-04-15T13:47:03;6.08;;;5.80;;
27303;SDS011;14791;52.392;13.092;2023-04-15T13:49:32;5.08;;;4.97;;
27303;SDS011;14791;52.392;13.092;2023-04-15T13:52:01;5.30;;;5.10;;
27303;SDS011;14791;52.392;13.092;2023-04-15T13:54:30;5.37;;;5.17;;
27303;SDS011;14791;52.392;13.092;2023-04-15T13:56:59;4.90;;;4.78;;
27303;SDS011;14791;52.392;13.092;2023-04-15T13:59:28;4.78;;;4.67;;
27303;SDS011;14791;52.392;13.092;2023-04-15T14:01:57;4.75;;;4.65;;
27303;SDS011;14791;52.392;13.092;2023-04-15T14:04:26;5.20;;;5.00;;
27303;SDS011;14791;52.392;13.092;2023-04-15T14:06:55;4.72;;;4.62;;
27303;SDS011;14791;52.392;13.092;2023-04-15T14:09:24;5.50;;;5.28;;
27303;SDS011;14791;52.392;13.092;2023-04-15T14:11:53;4.70;;;4.58;;
27303;SDS011;14791;52.392;13.092;2023-04-15T14:14:22;4.25;;;4.15;;
27303;SDS011;14791;52.392;13.092;2023-04-15T14:16:51;4.70;;;4.50;;
27303;SDS011;14791;52.392;13.092;2023-04-15T14:19:20;4.28;;;4.08;;
27303;SDS011;14791;52.392;13.092;2023-04-15T14:21:49;3.87;;;3.77;;
27303;SDS011;14791;52.392;13.092;2023-04-15T14:24:18;4.25;;;4.15;;
27303;SDS011;14791;52.392;13.092;2023-04-15T14:26:47;4.85;;;4.65;;
27303;SDS011;14791;52.392;13.092;2023-04-15T14:29:16;5.25;;;5.05;;
27303;SDS011;14791;52.392;13.092;2023-04-15T14:31:45;4.60;;;4.50;;
27303;SDS011;14791;52.392;13.092;2023-04-15T14:34:16;4.95;;;4.67;;
27303;SDS011;14791;52.392;13.092;2023-04-15T14:36:45;4.37;;;4.28;;
27303;SDS011;14791;52.392;13.092;2023-04-15T14:39:14;4.20;;;4.10;;
27303;SDS011;14791;52.392;13.092;2023-04-15T14:41:42;4.40;;;4.20;;
27303;SDS011;14791;52.392;13.092;2023-04-15T14:44:11;4.20;;;4.10;;
27303;SDS011;14791;52.392;13.092;2023-04-15T14:46:40;4.08;;;3.98;;
27303;SDS011;14791;52.392;13.092;2023-04-15T14:49:09;4.45;;;4.35;;
27303;SDS011;14791;52.392;13.092;2023-04-15T14:51:38;4.27;;;4.17;;
27303;SDS011;14791;52.392;13.092;2023-04-15T14:54:07;4.75;;;4.55;;